createdAt,value
2022-09-23T00:01:22.433Z,52.50
2022-09-23T00:03:59.749Z,53.10
2022-09-23T00:06:34.712Z,53.30
2022-09-23T00:09:09.911Z,53.40
2022-09-23T00:11:44.889Z,53.60
2022-09-23T00:14:21.668Z,53.90
2022-09-23T00:16:56.751Z,54.00
2022-09-23T00:19:31.758Z,54.30
2022-09-23T00:22:07.902Z,54.60
2022-09-23T00:24:42.827Z,54.80
2022-09-23T00:27:21.005Z,55.00
2022-09-23T00:29:56.007Z,55.30
2022-09-23T00:32:30.878Z,55.70
2022-09-23T00:35:06.826Z,55.90
2022-09-23T00:37:41.731Z,55.90
2022-09-23T00:40:16.870Z,56.30
2022-09-23T00:42:52.170Z,56.60
2022-09-23T00:45:27.256Z,56.70
2022-09-23T00:48:03.716Z,57.00
2022-09-23T00:50:42.813Z,57.20
2022-09-23T00:53:24.305Z,57.30
2022-09-23T00:56:07.052Z,57.40
2022-09-23T00:58:44.899Z,57.80
2022-09-23T01:01:20.992Z,58.20
2022-09-23T01:03:57.631Z,58.30
2022-09-23T01:06:32.917Z,58.60
2022-09-23T01:09:09.826Z,58.80
2022-09-23T01:12:18.346Z,58.70
2022-09-23T01:15:09.232Z,58.90
2022-09-23T01:18:14.681Z,59.40
2022-09-23T01:21:16.618Z,59.40
2022-09-23T01:24:43.694Z,59.50
2022-09-23T01:27:38.092Z,59.80
2022-09-23T01:30:35.083Z,60.50
2022-09-23T01:33:14.420Z,60.70
2022-09-23T01:36:10.078Z,60.80
2022-09-23T01:39:10.673Z,61.60
2022-09-23T01:42:01.630Z,62.50
2022-09-23T01:44:48.799Z,62.60
2022-09-23T01:47:34.263Z,62.70
2022-09-23T01:50:37.101Z,62.60
2022-09-23T01:53:44.731Z,62.60
2022-09-23T01:56:28.556Z,62.50
2022-09-23T01:59:15.398Z,62.40
2022-09-23T02:02:01.727Z,62.60
2022-09-23T02:04:50.448Z,63.10
2022-09-23T02:07:35.500Z,63.80
2022-09-23T02:10:23.007Z,63.90
2022-09-23T02:13:05.430Z,64.10
2022-09-23T02:15:49.058Z,64.10
2022-09-23T02:18:32.987Z,64.20
2022-09-23T02:21:09.600Z,64.50
2022-09-23T02:23:57.613Z,64.40
2022-09-23T02:26:41.240Z,64.50
2022-09-23T02:29:41.677Z,64.50
2022-09-23T02:32:32.777Z,64.80
2022-09-23T02:35:19.775Z,64.80
2022-09-23T02:38:26.236Z,65.10
2022-09-23T02:41:15.041Z,65.50
2022-09-23T02:44:14.718Z,65.80
2022-09-23T02:46:51.996Z,66.10
2022-09-23T02:49:29.729Z,65.90
2022-09-23T02:52:07.560Z,65.90
2022-09-23T02:54:42.514Z,66.00
2022-09-23T02:57:17.490Z,66.30
2022-09-23T02:59:52.681Z,66.40
2022-09-23T03:02:50.856Z,66.40
2022-09-23T03:05:32.404Z,66.80
2022-09-23T03:08:32.430Z,67.30
2022-09-23T03:11:13.473Z,67.80
2022-09-23T03:14:19.809Z,68.10
2022-09-23T03:17:14.478Z,68.10
2022-09-23T03:19:58.682Z,68.00
2022-09-23T03:22:44.741Z,68.20
2022-09-23T03:25:24.077Z,68.20
2022-09-23T03:28:01.133Z,68.20
2022-09-23T03:30:36.733Z,68.40
2022-09-23T03:33:16.617Z,68.50
2022-09-23T03:36:18.189Z,68.50
2022-09-23T03:39:04.441Z,68.50
2022-09-23T03:41:50.739Z,68.50
2022-09-23T03:44:29.144Z,68.60
2022-09-23T03:47:04.418Z,68.70
2022-09-23T03:49:41.056Z,68.80
2022-09-23T03:52:18.480Z,69.00
2022-09-23T03:54:53.817Z,69.20
2022-09-23T03:57:28.702Z,69.30
2022-09-23T04:00:06.918Z,69.80
2022-09-23T04:02:46.399Z,69.90
2022-09-23T04:05:21.303Z,69.90
2022-09-23T04:07:56.760Z,70.20
2022-09-23T04:10:31.696Z,70.50
2022-09-23T04:13:06.598Z,70.70
2022-09-23T04:15:41.714Z,71.10
2022-09-23T04:18:16.687Z,71.20
2022-09-23T04:20:51.651Z,71.10
2022-09-23T04:23:27.617Z,70.80
2022-09-23T04:26:05.218Z,70.80
2022-09-23T04:28:40.414Z,70.60
2022-09-23T04:31:15.419Z,70.80
2022-09-23T04:33:53.058Z,70.60
2022-09-23T04:36:32.950Z,70.70
2022-09-23T04:39:08.225Z,70.80
2022-09-23T04:41:44.685Z,70.50
2022-09-23T04:44:21.237Z,70.50
2022-09-23T04:46:56.252Z,70.40
2022-09-23T04:49:33.915Z,70.30
2022-09-23T04:52:08.899Z,70.00
2022-09-23T04:54:43.893Z,69.80
2022-09-23T04:57:18.832Z,69.60
2022-09-23T04:59:56.896Z,69.40
2022-09-23T05:02:32.129Z,69.30
2022-09-23T05:05:07.554Z,69.20
2022-09-23T05:07:43.066Z,69.50
2022-09-23T05:10:18.320Z,69.20
2022-09-23T05:12:57.009Z,69.20
2022-09-23T05:15:32.324Z,69.20
2022-09-23T05:18:07.291Z,68.90
2022-09-23T05:20:42.174Z,68.80
2022-09-23T05:23:17.187Z,68.70
2022-09-23T05:26:04.655Z,68.50
2022-09-23T05:28:40.254Z,68.40
2022-09-23T05:31:20.571Z,68.00
2022-09-23T05:34:02.094Z,67.80
2022-09-23T05:36:38.984Z,67.80
2022-09-23T05:39:14.283Z,68.00
2022-09-23T05:41:49.241Z,67.50
2022-09-23T05:44:24.265Z,67.90
2022-09-23T05:46:59.422Z,67.90
2022-09-23T05:49:58.073Z,67.90
2022-09-23T05:52:31.476Z,67.70
2022-09-23T05:55:07.416Z,67.40
2022-09-23T05:57:42.250Z,67.00
2022-09-23T06:00:17.513Z,66.80
2022-09-23T06:02:52.487Z,66.20
2022-09-23T06:05:27.489Z,65.80
2022-09-23T06:08:02.423Z,65.20
2022-09-23T06:10:39.284Z,64.90
2022-09-23T06:13:15.958Z,64.50
2022-09-23T06:15:52.172Z,64.00
2022-09-23T06:18:27.178Z,63.50
2022-09-23T06:21:03.816Z,62.90
2022-09-23T06:23:41.782Z,62.40
2022-09-23T06:26:17.059Z,61.60
2022-09-23T06:28:52.071Z,60.60
2022-09-23T06:31:27.439Z,60.70
2022-09-23T06:34:10.560Z,59.30
2022-09-23T06:36:47.700Z,59.00
2022-09-23T06:39:22.586Z,58.40
2022-09-23T06:41:57.530Z,57.70
2022-09-23T06:44:35.325Z,57.10
2022-09-23T06:47:10.291Z,56.00
2022-09-23T06:49:45.179Z,55.00
2022-09-23T06:52:21.095Z,54.50
2022-09-23T06:54:56.821Z,54.10
2022-09-23T06:57:35.124Z,53.40
2022-09-23T07:00:11.958Z,51.80
2022-09-23T07:02:47.266Z,50.70
2022-09-23T07:05:22.572Z,50.00
2022-09-23T07:07:57.734Z,49.80
2022-09-23T07:10:32.932Z,49.10
2022-09-23T07:13:07.887Z,48.40
2022-09-23T07:15:42.950Z,47.30
2022-09-23T07:18:19.759Z,45.90
2022-09-23T07:20:58.837Z,45.70
2022-09-23T07:23:34.265Z,45.00
2022-09-23T07:26:09.258Z,44.70
2022-09-23T07:28:44.332Z,44.00
2022-09-23T07:31:33.743Z,43.50
2022-09-23T07:34:13.096Z,43.20
2022-09-23T07:36:48.108Z,42.40
2022-09-23T07:39:23.104Z,41.90
2022-09-23T07:41:58.072Z,41.50
2022-09-23T07:44:33.851Z,41.10
2022-09-23T07:47:08.909Z,40.80
2022-09-23T07:49:43.792Z,40.20
2022-09-23T07:52:19.587Z,39.70
2022-09-23T07:54:54.462Z,38.60
2022-09-23T07:57:29.373Z,38.20
2022-09-23T08:00:05.265Z,38.10
2022-09-23T08:02:49.570Z,38.00
2022-09-23T08:05:27.629Z,37.60
2022-09-23T08:08:02.685Z,37.30
2022-09-23T08:10:37.576Z,37.20
2022-09-23T08:13:12.481Z,37.10
2022-09-23T08:15:52.033Z,36.90
2022-09-23T08:18:29.861Z,36.60
2022-09-23T08:21:04.991Z,36.30
2022-09-23T08:23:39.953Z,36.30
2022-09-23T08:26:20.912Z,35.80
2022-09-23T08:28:58.044Z,35.60
2022-09-23T08:31:33.054Z,35.10
2022-09-23T08:34:08.634Z,35.10
2022-09-23T08:36:43.846Z,35.20
2022-09-23T08:39:20.874Z,35.10
2022-09-23T08:42:12.550Z,35.10
2022-09-23T08:44:53.333Z,35.10
2022-09-23T08:47:38.115Z,34.80
2022-09-23T08:50:42.416Z,34.70
2022-09-23T08:53:31.102Z,34.80
2022-09-23T08:56:13.854Z,34.80
2022-09-23T08:59:28.810Z,34.50
2022-09-23T09:02:19.794Z,34.40
2022-09-23T09:05:01.074Z,34.20
2022-09-23T09:07:40.471Z,34.30
2022-09-23T09:10:25.651Z,34.40
2022-09-23T09:13:10.873Z,34.20
2022-09-23T09:16:41.784Z,34.10
2022-09-23T09:19:42.856Z,33.80
2022-09-23T09:22:52.697Z,33.70
2022-09-23T09:25:57.518Z,33.80
2022-09-23T09:29:06.515Z,33.80
2022-09-23T09:31:51.920Z,33.80
2022-09-23T09:34:28.892Z,33.40
2022-09-23T09:37:25.567Z,33.30
2022-09-23T09:40:00.868Z,33.30
2022-09-23T09:42:42.291Z,33.50
2022-09-23T09:45:24.225Z,33.30
2022-09-23T09:48:17.615Z,33.40
2022-09-23T09:50:55.966Z,33.40
2022-09-23T09:53:35.720Z,33.40
2022-09-23T09:56:15.695Z,33.50
2022-09-23T09:59:11.400Z,33.40
2022-09-23T10:01:46.856Z,33.40
2022-09-23T10:04:24.925Z,33.30
2022-09-23T10:07:15.895Z,33.30
2022-09-23T10:09:51.828Z,33.30
2022-09-23T10:12:27.181Z,33.00
2022-09-23T10:15:02.109Z,32.60
2022-09-23T10:17:39.351Z,32.70
2022-09-23T10:20:15.357Z,33.00
2022-09-23T10:22:50.399Z,33.10
2022-09-23T10:25:26.660Z,33.20
2022-09-23T10:28:52.715Z,33.10
2022-09-23T10:31:31.599Z,32.70
2022-09-23T10:34:28.419Z,32.40
2022-09-23T10:37:15.779Z,32.50
2022-09-23T10:40:09.345Z,32.10
2022-09-23T10:44:06.731Z,31.80
2022-09-23T10:47:06.984Z,32.00
2022-09-23T10:50:14.242Z,32.40
2022-09-23T10:53:42.687Z,32.30
2022-09-23T10:56:20.052Z,32.40
2022-09-23T10:59:30.223Z,31.90
2022-09-23T11:02:44.142Z,31.30
2022-09-23T11:05:41.322Z,31.20
2022-09-23T11:08:58.692Z,31.50
2022-09-23T11:12:09.509Z,31.50
2022-09-23T11:15:24.738Z,31.50
2022-09-23T11:18:45.832Z,31.80
2022-09-23T11:22:08.314Z,31.40
2022-09-23T11:25:03.241Z,31.40
2022-09-23T11:28:21.810Z,30.90
2022-09-23T11:31:11.639Z,30.90
2022-09-23T11:33:58.116Z,30.80
2022-09-23T11:36:40.933Z,30.10
2022-09-23T11:39:32.609Z,29.70
2022-09-23T11:42:20.188Z,29.90
2022-09-23T11:45:05.944Z,29.40
2022-09-23T11:48:13.744Z,29.80
2022-09-23T11:50:55.317Z,30.00
2022-09-23T11:53:50.727Z,30.00
2022-09-23T11:56:38.802Z,30.40
2022-09-23T11:59:40.912Z,30.00
2022-09-23T12:02:30.254Z,29.00
2022-09-23T12:05:20.572Z,29.50
2022-09-23T12:08:02.825Z,28.70
2022-09-23T12:11:14.140Z,28.60
2022-09-23T12:13:57.904Z,28.40
2022-09-23T12:17:07.181Z,28.60
2022-09-23T12:20:31.252Z,29.00
2022-09-23T12:23:49.576Z,28.10
2022-09-23T12:26:25.777Z,28.90
2022-09-23T12:29:05.152Z,28.60
2022-09-23T12:31:43.031Z,27.90
2022-09-23T12:34:30.003Z,28.60
2022-09-23T12:37:05.607Z,28.00
2022-09-23T12:39:40.621Z,28.60
2022-09-23T12:42:19.646Z,27.30
2022-09-23T12:45:34.988Z,28.50
2022-09-23T12:48:43.804Z,26.80
2022-09-23T12:51:21.171Z,27.80
2022-09-23T12:54:24.765Z,28.20
2022-09-23T12:57:01.336Z,29.50
2022-09-23T12:59:51.543Z,28.40
2022-09-23T13:02:32.166Z,28.00
2022-09-23T13:05:42.406Z,28.10
2022-09-23T13:08:22.615Z,28.00
2022-09-23T13:11:03.758Z,28.30
2022-09-23T13:13:45.504Z,28.60
2022-09-23T13:16:26.812Z,28.00
2022-09-23T13:19:05.468Z,28.50
2022-09-23T13:21:43.045Z,28.10
2022-09-23T13:24:31.256Z,26.90
2022-09-23T13:27:20.945Z,27.60
2022-09-23T13:30:14.176Z,28.20
2022-09-23T13:33:03.557Z,27.70
2022-09-23T13:35:43.420Z,27.40
2022-09-23T13:38:28.082Z,27.50
2022-09-23T13:41:09.738Z,26.80
2022-09-23T13:43:52.433Z,27.00
2022-09-23T13:46:46.602Z,26.10
2022-09-23T13:49:28.992Z,27.20
2022-09-23T13:52:04.451Z,26.60
2022-09-23T13:54:51.675Z,27.00
2022-09-23T13:57:36.873Z,27.40
2022-09-23T14:00:24.600Z,26.90
2022-09-23T14:02:59.574Z,26.70
2022-09-23T14:05:36.306Z,27.60
2022-09-23T14:08:12.659Z,27.00
2022-09-23T14:10:48.132Z,27.40
2022-09-23T14:13:33.392Z,26.00
2022-09-23T14:16:14.952Z,25.50
2022-09-23T14:18:56.183Z,25.50
2022-09-23T14:21:39.825Z,25.80
2022-09-23T14:24:30.144Z,25.60
2022-09-23T14:27:07.897Z,26.10
2022-09-23T14:29:46.888Z,25.70
2022-09-23T14:32:26.001Z,26.00
2022-09-23T14:35:00.907Z,25.50
2022-09-23T14:37:56.987Z,25.50
2022-09-23T14:40:41.208Z,25.70
2022-09-23T14:43:23.141Z,25.70
2022-09-23T14:45:59.081Z,25.80
2022-09-23T14:48:35.795Z,25.70
2022-09-23T14:51:16.054Z,26.50
2022-09-23T14:53:51.952Z,26.20
2022-09-23T14:56:26.882Z,26.30
2022-09-23T14:59:01.899Z,26.40
2022-09-23T15:01:39.129Z,26.40
2022-09-23T15:04:22.944Z,26.80
2022-09-23T15:07:23.795Z,26.50
2022-09-23T15:09:58.796Z,26.60
2022-09-23T15:12:33.740Z,26.80
2022-09-23T15:15:13.415Z,27.10
2022-09-23T15:17:48.360Z,27.10
2022-09-23T15:20:26.619Z,27.10
2022-09-23T15:23:01.747Z,27.20
2022-09-23T15:25:40.936Z,27.70
2022-09-23T15:28:19.051Z,27.50
2022-09-23T15:30:55.180Z,27.50
2022-09-23T15:33:30.186Z,27.70
2022-09-23T15:36:05.496Z,27.80
2022-09-23T15:38:44.781Z,27.80
2022-09-23T15:41:19.984Z,27.90
2022-09-23T15:43:56.443Z,28.00
2022-09-23T15:46:33.630Z,27.90
2022-09-23T15:49:34.610Z,28.00
2022-09-23T15:52:12.187Z,28.00
2022-09-23T15:54:47.144Z,28.20
2022-09-23T15:57:22.143Z,28.20
2022-09-23T15:59:58.433Z,28.40
2022-09-23T16:02:33.581Z,28.50
2022-09-23T16:05:27.351Z,28.80
2022-09-23T16:08:08.899Z,29.00
2022-09-23T16:10:44.325Z,28.80
2022-09-23T16:13:19.555Z,28.90
2022-09-23T16:15:56.297Z,28.90
2022-09-23T16:18:31.260Z,29.10
2022-09-23T16:21:07.653Z,29.10
2022-09-23T16:23:47.457Z,29.30
2022-09-23T16:26:43.145Z,29.40
2022-09-23T16:29:18.020Z,29.50
2022-09-23T16:31:54.145Z,29.60
2022-09-23T16:34:29.565Z,29.70
2022-09-23T16:37:04.777Z,30.00
2022-09-23T16:39:39.696Z,30.00
2022-09-23T16:42:14.617Z,30.00
2022-09-23T16:44:49.782Z,30.10
2022-09-23T16:47:24.720Z,30.30
2022-09-23T16:49:59.643Z,30.60
2022-09-23T16:52:34.572Z,30.80
2022-09-23T16:55:11.950Z,30.90
2022-09-23T16:57:46.881Z,31.30
2022-09-23T17:00:41.392Z,31.30
2022-09-23T17:03:49.008Z,31.30
2022-09-23T17:06:27.389Z,31.60
2022-09-23T17:09:02.677Z,31.80
2022-09-23T17:11:38.144Z,31.80
2022-09-23T17:14:13.805Z,31.90
2022-09-23T17:16:48.823Z,32.10
2022-09-23T17:19:23.767Z,32.20
2022-09-23T17:21:58.732Z,32.50
2022-09-23T17:24:33.644Z,32.50
2022-09-23T17:27:08.613Z,32.80
2022-09-23T17:29:44.480Z,32.90
2022-09-23T17:32:19.345Z,33.00
2022-09-23T17:34:54.294Z,33.10
2022-09-23T17:37:29.234Z,33.00
2022-09-23T17:40:05.061Z,33.20
2022-09-23T17:42:41.346Z,33.20
2022-09-23T17:45:16.301Z,33.30
2022-09-23T17:47:54.762Z,33.40
2022-09-23T17:50:31.215Z,33.50
2022-09-23T17:53:06.101Z,33.80
2022-09-23T17:55:41.199Z,33.90
2022-09-23T17:58:17.106Z,34.20
2022-09-23T18:00:52.420Z,34.30
2022-09-23T18:03:29.998Z,34.40
2022-09-23T18:06:10.867Z,34.50
2022-09-23T18:08:48.259Z,34.60
2022-09-23T18:11:27.293Z,34.80
2022-09-23T18:14:11.481Z,34.90
2022-09-23T18:16:53.006Z,34.90
2022-09-23T18:19:27.904Z,35.10
2022-09-23T18:22:02.970Z,35.10
2022-09-23T18:24:41.047Z,35.20
2022-09-23T18:27:17.073Z,35.30
2022-09-23T18:29:52.003Z,35.40
2022-09-23T18:32:26.935Z,35.80
2022-09-23T18:35:01.901Z,35.50
2022-09-23T18:37:36.827Z,35.60
2022-09-23T18:40:14.629Z,35.70
2022-09-23T18:42:50.294Z,35.80
2022-09-23T18:45:25.257Z,35.80
2022-09-23T18:48:18.504Z,36.00
2022-09-23T18:50:54.138Z,36.00
2022-09-23T18:53:29.016Z,36.10
2022-09-23T18:56:13.130Z,36.30
2022-09-23T18:58:50.152Z,36.40
2022-09-23T19:01:25.838Z,36.60
2022-09-23T19:04:02.223Z,36.70
2022-09-23T19:06:37.407Z,36.80
2022-09-23T19:09:13.941Z,36.90
2022-09-23T19:11:52.806Z,36.90
2022-09-23T19:14:27.843Z,37.10
2022-09-23T19:17:05.123Z,37.10
2022-09-23T19:19:40.913Z,37.20
2022-09-23T19:22:15.965Z,37.40
2022-09-23T19:24:50.872Z,37.50
2022-09-23T19:27:25.815Z,37.60
2022-09-23T19:30:00.714Z,37.60
2022-09-23T19:32:35.693Z,37.70
2022-09-23T19:35:12.378Z,37.80
2022-09-23T19:37:49.241Z,37.90
2022-09-23T19:40:24.222Z,37.90
2022-09-23T19:42:59.206Z,38.20
2022-09-23T19:45:34.296Z,38.30
2022-09-23T19:48:09.702Z,38.50
2022-09-23T19:50:47.368Z,38.70
2022-09-23T19:53:27.890Z,38.90
2022-09-23T19:56:07.047Z,39.30
2022-09-23T19:58:48.165Z,39.50
2022-09-23T20:01:24.700Z,39.60
2022-09-23T20:04:00.452Z,39.70
2022-09-23T20:06:38.760Z,39.90
2022-09-23T20:09:13.949Z,40.10
2022-09-23T20:11:48.927Z,40.10
2022-09-23T20:14:26.990Z,40.30
2022-09-23T20:17:02.393Z,40.50
2022-09-23T20:19:37.414Z,40.50
2022-09-23T20:22:33.360Z,40.70
2022-09-23T20:25:13.483Z,41.10
2022-09-23T20:27:52.520Z,41.30
2022-09-23T20:30:28.556Z,41.40
2022-09-23T20:33:03.434Z,41.50
2022-09-23T20:35:39.029Z,41.60
2022-09-23T20:38:13.911Z,41.70
2022-09-23T20:40:56.796Z,41.90
2022-09-23T20:43:34.356Z,42.00
2022-09-23T20:46:09.512Z,42.10
2022-09-23T20:48:46.727Z,42.30
2022-09-23T20:51:21.671Z,42.40
2022-09-23T20:53:56.621Z,42.60
2022-09-23T20:56:31.781Z,42.70
2022-09-23T20:59:10.596Z,42.80
2022-09-23T21:01:45.838Z,42.90
2022-09-23T21:04:22.407Z,43.10
2022-09-23T21:06:58.199Z,43.20
2022-09-23T21:09:33.373Z,43.40
2022-09-23T21:12:08.285Z,43.80
2022-09-23T21:14:43.406Z,44.00
2022-09-23T21:17:18.834Z,44.20
2022-09-23T21:19:53.718Z,44.40
2022-09-23T21:22:28.699Z,44.50
2022-09-23T21:25:26.810Z,44.60
2022-09-23T21:28:01.766Z,44.80
2022-09-23T21:30:36.695Z,45.10
2022-09-23T21:33:11.617Z,45.30
2022-09-23T21:35:46.575Z,45.60
2022-09-23T21:38:23.049Z,45.90
2022-09-23T21:41:05.118Z,46.10
2022-09-23T21:43:40.492Z,46.10
2022-09-23T21:46:21.739Z,46.40
2022-09-23T21:48:58.693Z,46.50
2022-09-23T21:51:42.210Z,46.70
2022-09-23T21:54:17.384Z,46.80
2022-09-23T21:56:52.388Z,47.00
2022-09-23T21:59:27.697Z,47.30
2022-09-23T22:02:02.866Z,47.60
2022-09-23T22:04:37.809Z,47.70
2022-09-23T22:07:12.684Z,47.80
2022-09-23T22:09:47.877Z,48.20
2022-09-23T22:12:24.052Z,48.50
2022-09-23T22:14:59.115Z,48.90
2022-09-23T22:17:34.067Z,49.20
2022-09-23T22:20:09.532Z,49.40
2022-09-23T22:22:44.520Z,49.40
2022-09-23T22:25:20.384Z,49.50
2022-09-23T22:28:14.044Z,49.80
2022-09-23T22:31:07.308Z,50.10
2022-09-23T22:33:42.270Z,50.40
2022-09-23T22:36:17.497Z,50.80
2022-09-23T22:38:59.219Z,51.40
2022-09-23T22:41:36.421Z,51.90
2022-09-23T22:44:11.425Z,52.80
2022-09-23T22:46:48.707Z,53.10
2022-09-23T22:49:23.628Z,53.30
2022-09-23T22:52:03.973Z,53.40
2022-09-23T22:54:38.940Z,53.40
2022-09-23T22:57:14.617Z,53.40
2022-09-23T22:59:49.545Z,53.50
2022-09-23T23:02:24.426Z,53.40
2022-09-23T23:05:00.899Z,53.30
2022-09-23T23:07:36.217Z,53.00
2022-09-23T23:10:11.283Z,53.00
2022-09-23T23:12:47.406Z,52.80
2022-09-23T23:15:22.300Z,52.60
2022-09-23T23:17:59.223Z,52.60
2022-09-23T23:20:35.043Z,52.50
2022-09-23T23:23:09.933Z,52.50
2022-09-23T23:25:44.933Z,52.60
2022-09-23T23:28:19.778Z,52.80
2022-09-23T23:30:54.703Z,53.10
2022-09-23T23:33:29.626Z,53.40
2022-09-23T23:36:06.555Z,53.70
2022-09-23T23:38:43.493Z,54.20
2022-09-23T23:41:22.491Z,54.60
2022-09-23T23:44:00.014Z,55.10
2022-09-23T23:46:36.044Z,55.80
2022-09-23T23:49:11.078Z,56.20
2022-09-23T23:51:46.452Z,56.90
2022-09-23T23:54:21.620Z,57.10
2022-09-23T23:56:56.584Z,57.10
2022-09-23T23:59:31.470Z,57.40
